SVR267 UNOO-UNKL
Flight info
| Callsign | SVR267 |
|---|---|
| Flight time | N/A |
| Altitude | 35000 |
| Route | RUMOD6D RUMOD A844 BIKMI R234 ABESA B944 EDINI G829 NN A300 ROTLI/K0739F270 A300 RANET RANET2Z |
| Aircraft | A320/M-SDE3FGHIRWY/LB1 |
Departure
| Time | N/A |
|---|---|
| Airport | Omsk Central Airport (UNOO) |
Arrival
| Time | 2026-05-05 16:48 |
|---|---|
| Airport | Krasnoyarsk International Airport (UNKL) |
| Time | Latitude | Longitude | Altitude | Speed | Heading |
|---|---|---|---|---|---|
| 2026-05-05 16:41 | 56.06428 | 92.56889 | 5671 ft | 245 kts | 70° |
| 2026-05-05 16:41 | 56.07041 | 92.59619 | 5467 ft | 232 kts | 70° |
| 2026-05-05 16:41 | 56.07612 | 92.62210 | 5329 ft | 215 kts | 71° |
| 2026-05-05 16:42 | 56.08143 | 92.64625 | 5071 ft | 205 kts | 71° |
| 2026-05-05 16:42 | 56.08657 | 92.66969 | 4833 ft | 198 kts | 71° |
| 2026-05-05 16:42 | 56.09157 | 92.69244 | 4541 ft | 197 kts | 70° |
| 2026-05-05 16:42 | 56.09670 | 92.71594 | 4089 ft | 204 kts | 70° |
| 2026-05-05 16:43 | 56.10181 | 92.73923 | 3895 ft | 197 kts | 69° |
| 2026-05-05 16:43 | 56.10670 | 92.76141 | 3779 ft | 186 kts | 69° |
| 2026-05-05 16:43 | 56.11228 | 92.78139 | 3683 ft | 174 kts | 41° |
| 2026-05-05 16:43 | 56.12276 | 92.78837 | 3622 ft | 159 kts | 343° |
| 2026-05-05 16:44 | 56.13206 | 92.78054 | 3882 ft | 148 kts | 309° |
| 2026-05-05 16:44 | 56.13487 | 92.76405 | 3632 ft | 137 kts | 255° |
| 2026-05-05 16:44 | 56.13195 | 92.74657 | 3414 ft | 138 kts | 251° |
| 2026-05-05 16:44 | 56.12903 | 92.72998 | 3242 ft | 138 kts | 252° |
| 2026-05-05 16:45 | 56.12611 | 92.71359 | 3086 ft | 138 kts | 252° |
| 2026-05-05 16:45 | 56.12514 | 92.69660 | 2946 ft | 139 kts | 275° |
| 2026-05-05 16:45 | 56.12821 | 92.68027 | 2805 ft | 139 kts | 290° |
| 2026-05-05 16:45 | 56.13203 | 92.66449 | 2643 ft | 137 kts | 290° |
| 2026-05-05 16:46 | 56.13576 | 92.64888 | 2563 ft | 136 kts | 290° |
| 2026-05-05 16:46 | 56.13958 | 92.63281 | 2387 ft | 137 kts | 290° |
| 2026-05-05 16:46 | 56.14322 | 92.61752 | 2202 ft | 136 kts | 290° |
| 2026-05-05 16:46 | 56.14695 | 92.60194 | 2014 ft | 136 kts | 291° |
| 2026-05-05 16:47 | 56.15068 | 92.58635 | 1811 ft | 137 kts | 291° |
| 2026-05-05 16:47 | 56.15449 | 92.57039 | 1579 ft | 139 kts | 292° |
| 2026-05-05 16:47 | 56.15821 | 92.55423 | 1352 ft | 140 kts | 291° |
| 2026-05-05 16:47 | 56.16198 | 92.53814 | 1194 ft | 140 kts | 293° |
| 2026-05-05 16:48 | 56.16601 | 92.52221 | 1016 ft | 140 kts | 292° |
| 2026-05-05 16:48 | 56.16973 | 92.50680 | 956 ft | 124 kts | 295° |
| 2026-05-05 16:48 | 56.17277 | 92.49406 | 953 ft | 89 kts | 293° |
| 2026-05-05 16:48 | 56.17420 | 92.48812 | 953 ft | 28 kts | 295° |
| 2026-05-05 16:49 | 56.17562 | 92.48609 | 954 ft | 25 kts | 325° |
| 2026-05-05 16:49 | 56.17595 | 92.48569 | 955 ft | 0 kts | 324° |
| 2026-05-05 16:49 | 56.17625 | 92.48530 | 955 ft | 11 kts | 324° |
| 2026-05-05 16:49 | 56.17665 | 92.48478 | 956 ft | 9 kts | 324° |